sensor_id;sensor_type;location;lat;lon;timestamp;pressure;altitude;pressure_sealevel;temperature;humidity
80414;BME280;69758;52.580;13.068;2023-08-30T00:02:08;100558.78;;;21.73;35.51
80414;BME280;69758;52.580;13.068;2023-08-30T00:04:33;100556.03;;;21.71;35.60
80414;BME280;69758;52.580;13.068;2023-08-30T00:06:58;100552.55;;;21.67;35.63
80414;BME280;69758;52.580;13.068;2023-08-30T00:09:23;100549.21;;;21.86;35.65
80414;BME280;69758;52.580;13.068;2023-08-30T00:11:48;100543.35;;;21.82;35.69
80414;BME280;69758;52.580;13.068;2023-08-30T00:14:20;100539.64;;;22.03;35.63
80414;BME280;69758;52.580;13.068;2023-08-30T00:16:39;100535.56;;;22.05;35.46
80414;BME280;69758;52.580;13.068;2023-08-30T00:19:04;100534.62;;;21.78;35.36
80414;BME280;69758;52.580;13.068;2023-08-30T00:21:29;100531.59;;;21.72;35.31
80414;BME280;69758;52.580;13.068;2023-08-30T00:23:54;100534.48;;;21.68;35.28
80414;BME280;69758;52.580;13.068;2023-08-30T00:26:19;100540.94;;;21.64;35.30
80414;BME280;69758;52.580;13.068;2023-08-30T00:28:44;100542.30;;;21.60;35.29
80414;BME280;69758;52.580;13.068;2023-08-30T00:31:09;100542.54;;;21.56;35.40
80414;BME280;69758;52.580;13.068;2023-08-30T00:33:35;100543.27;;;21.75;35.48
80414;BME280;69758;52.580;13.068;2023-08-30T00:36:00;100543.64;;;21.45;35.59
80414;BME280;69758;52.580;13.068;2023-08-30T00:38:26;100545.04;;;21.41;35.59
80414;BME280;69758;52.580;13.068;2023-08-30T00:40:50;100546.21;;;21.61;35.58
80414;BME280;69758;52.580;13.068;2023-08-30T00:43:15;100544.93;;;21.59;35.46
80414;BME280;69758;52.580;13.068;2023-08-30T00:45:40;100546.44;;;21.55;35.40
80414;BME280;69758;52.580;13.068;2023-08-30T00:48:06;100550.03;;;21.30;35.25
80414;BME280;69758;52.580;13.068;2023-08-30T00:50:31;100552.38;;;21.50;35.16
80414;BME280;69758;52.580;13.068;2023-08-30T00:52:57;100553.00;;;21.22;35.16
80414;BME280;69758;52.580;13.068;2023-08-30T00:55:21;100552.42;;;21.41;35.27
80414;BME280;69758;52.580;13.068;2023-08-30T00:57:46;100552.29;;;21.36;35.37
80414;BME280;69758;52.580;13.068;2023-08-30T01:00:12;100553.76;;;21.34;35.46
80414;BME280;69758;52.580;13.068;2023-08-30T01:02:37;100554.39;;;21.31;35.52
80414;BME280;69758;52.580;13.068;2023-08-30T01:05:08;100553.84;;;21.29;35.60
80414;BME280;69758;52.580;13.068;2023-08-30T01:07:27;100556.22;;;21.05;35.66
80414;BME280;69758;52.580;13.068;2023-08-30T01:09:53;100558.44;;;21.30;35.73
80414;BME280;69758;52.580;13.068;2023-08-30T01:12:22;100560.09;;;21.28;35.79
80414;BME280;69758;52.580;13.068;2023-08-30T01:14:48;100559.73;;;21.26;35.86
80414;BME280;69758;52.580;13.068;2023-08-30T01:17:10;100559.69;;;21.25;35.94
80414;BME280;69758;52.580;13.068;2023-08-30T01:19:41;100561.60;;;21.26;35.87
80414;BME280;69758;52.580;13.068;2023-08-30T01:22:05;100555.52;;;21.03;35.79
80414;BME280;69758;52.580;13.068;2023-08-30T01:24:28;100550.89;;;21.28;35.82
80414;BME280;69758;52.580;13.068;2023-08-30T01:29:16;100545.53;;;21.25;35.99
80414;BME280;69758;52.580;13.068;2023-08-30T01:31:40;100549.25;;;21.24;36.12
80414;BME280;69758;52.580;13.068;2023-08-30T01:34:04;100553.84;;;21.24;36.12
80414;BME280;69758;52.580;13.068;2023-08-30T01:36:29;100554.77;;;21.46;36.21
80414;BME280;69758;52.580;13.068;2023-08-30T01:38:55;100554.44;;;21.21;36.20
80414;BME280;69758;52.580;13.068;2023-08-30T01:41:20;100554.89;;;21.22;36.14
80414;BME280;69758;52.580;13.068;2023-08-30T01:43:45;100560.00;;;21.22;36.13
80414;BME280;69758;52.580;13.068;2023-08-30T01:46:10;100572.45;;;21.29;36.02
80414;BME280;69758;52.580;13.068;2023-08-30T01:48:35;100579.92;;;21.25;36.09
80414;BME280;69758;52.580;13.068;2023-08-30T01:51:00;100586.76;;;21.21;36.14
80414;BME280;69758;52.580;13.068;2023-08-30T01:53:26;100587.76;;;21.18;36.22
80414;BME280;69758;52.580;13.068;2023-08-30T01:55:50;100587.15;;;21.15;36.28
80414;BME280;69758;52.580;13.068;2023-08-30T01:58:16;100586.93;;;21.17;36.21
80414;BME280;69758;52.580;13.068;2023-08-30T02:00:41;100587.10;;;21.18;36.20
80414;BME280;69758;52.580;13.068;2023-08-30T02:03:08;100584.36;;;21.17;36.18
80414;BME280;69758;52.580;13.068;2023-08-30T02:05:32;100581.28;;;21.17;36.15
80414;BME280;69758;52.580;13.068;2023-08-30T02:08:00;100574.88;;;21.19;36.19
80414;BME280;69758;52.580;13.068;2023-08-30T02:10:23;100566.22;;;21.41;36.33
80414;BME280;69758;52.580;13.068;2023-08-30T02:12:48;100563.59;;;21.40;36.37
80414;BME280;69758;52.580;13.068;2023-08-30T02:15:12;100562.56;;;21.16;36.42
80414;BME280;69758;52.580;13.068;2023-08-30T02:17:37;100568.07;;;21.15;36.58
80414;BME280;69758;52.580;13.068;2023-08-30T02:20:03;100564.65;;;21.13;36.69
80414;BME280;69758;52.580;13.068;2023-08-30T02:22:27;100563.46;;;21.12;36.62
80414;BME280;69758;52.580;13.068;2023-08-30T02:24:52;100564.38;;;20.88;36.60
80414;BME280;69758;52.580;13.068;2023-08-30T02:27:17;100560.64;;;21.13;36.52
80414;BME280;69758;52.580;13.068;2023-08-30T02:29:43;100552.86;;;21.35;36.52
80414;BME280;69758;52.580;13.068;2023-08-30T02:32:08;100545.46;;;21.35;36.49
80414;BME280;69758;52.580;13.068;2023-08-30T02:34:33;100547.68;;;21.13;36.50
80414;BME280;69758;52.580;13.068;2023-08-30T02:36:58;100554.54;;;21.11;36.65
80414;BME280;69758;52.580;13.068;2023-08-30T02:39:23;100556.47;;;21.11;36.76
80414;BME280;69758;52.580;13.068;2023-08-30T02:41:48;100558.42;;;21.10;36.79
80414;BME280;69758;52.580;13.068;2023-08-30T02:44:14;100555.12;;;21.10;36.79
80414;BME280;69758;52.580;13.068;2023-08-30T02:46:39;100547.89;;;21.10;36.87
80414;BME280;69758;52.580;13.068;2023-08-30T02:49:04;100541.90;;;21.13;36.84
80414;BME280;69758;52.580;13.068;2023-08-30T02:51:29;100537.38;;;21.14;36.78
80414;BME280;69758;52.580;13.068;2023-08-30T02:53:54;100531.76;;;21.17;36.81
80414;BME280;69758;52.580;13.068;2023-08-30T02:56:19;100529.37;;;21.18;36.70
80414;BME280;69758;52.580;13.068;2023-08-30T02:58:45;100527.61;;;21.22;36.65
80414;BME280;69758;52.580;13.068;2023-08-30T03:01:10;100528.66;;;21.07;36.52
80414;BME280;69758;52.580;13.068;2023-08-30T03:03:35;100528.53;;;21.30;36.51
80414;BME280;69758;52.580;13.068;2023-08-30T03:06:01;100523.89;;;21.28;36.47
80414;BME280;69758;52.580;13.068;2023-08-30T03:08:25;100521.37;;;21.27;36.41
80414;BME280;69758;52.580;13.068;2023-08-30T03:10:50;100519.67;;;21.26;36.43
80414;BME280;69758;52.580;13.068;2023-08-30T03:13:15;100525.52;;;21.24;36.35
80414;BME280;69758;52.580;13.068;2023-08-30T03:15:41;100529.29;;;21.43;36.28
80414;BME280;69758;52.580;13.068;2023-08-30T03:18:06;100528.54;;;21.14;36.24
80414;BME280;69758;52.580;13.068;2023-08-30T03:20:31;100528.15;;;21.29;36.25
80414;BME280;69758;52.580;13.068;2023-08-30T03:22:57;100524.06;;;21.01;36.35
80414;BME280;69758;52.580;13.068;2023-08-30T03:25:22;100523.93;;;21.01;36.42
80414;BME280;69758;52.580;13.068;2023-08-30T03:27:46;100524.01;;;21.19;36.47
80414;BME280;69758;52.580;13.068;2023-08-30T03:30:13;100527.14;;;20.95;36.48
80414;BME280;69758;52.580;13.068;2023-08-30T03:32:37;100534.28;;;21.39;36.31
80414;BME280;69758;52.580;13.068;2023-08-30T03:35:03;100540.59;;;20.89;36.17
80414;BME280;69758;52.580;13.068;2023-08-30T03:37:27;100542.41;;;20.86;36.17
80414;BME280;69758;52.580;13.068;2023-08-30T03:39:57;100541.11;;;21.28;36.20
80414;BME280;69758;52.580;13.068;2023-08-30T03:42:17;100539.92;;;20.73;36.27
80414;BME280;69758;52.580;13.068;2023-08-30T03:44:48;100542.15;;;21.17;36.26
80414;BME280;69758;52.580;13.068;2023-08-30T03:47:08;100542.95;;;20.91;36.25
80414;BME280;69758;52.580;13.068;2023-08-30T03:49:33;100541.19;;;20.87;36.25
80414;BME280;69758;52.580;13.068;2023-08-30T03:51:58;100534.29;;;20.59;36.28
80414;BME280;69758;52.580;13.068;2023-08-30T03:54:28;100528.68;;;20.59;36.24
80414;BME280;69758;52.580;13.068;2023-08-30T03:56:48;100531.23;;;20.80;36.23
80414;BME280;69758;52.580;13.068;2023-08-30T03:59:14;100538.36;;;20.78;36.31
80414;BME280;69758;52.580;13.068;2023-08-30T04:01:39;100539.71;;;21.01;36.32
80414;BME280;69758;52.580;13.068;2023-08-30T04:04:04;100538.21;;;20.51;36.33
80414;BME280;69758;52.580;13.068;2023-08-30T04:06:29;100526.97;;;20.68;36.34
80414;BME280;69758;52.580;13.068;2023-08-30T04:08:54;100521.50;;;20.60;36.44
80414;BME280;69758;52.580;13.068;2023-08-30T04:11:20;100520.95;;;20.78;36.51
80414;BME280;69758;52.580;13.068;2023-08-30T04:13:45;100527.83;;;20.51;36.51
80414;BME280;69758;52.580;13.068;2023-08-30T04:16:10;100528.72;;;20.75;36.53
80414;BME280;69758;52.580;13.068;2023-08-30T04:18:35;100525.95;;;20.31;36.53
80414;BME280;69758;52.580;13.068;2023-08-30T04:21:00;100525.66;;;20.63;36.39
80414;BME280;69758;52.580;13.068;2023-08-30T04:23:25;100524.94;;;20.90;36.27
80414;BME280;69758;52.580;13.068;2023-08-30T04:25:52;100521.29;;;20.63;36.38
80414;BME280;69758;52.580;13.068;2023-08-30T04:28:16;100521.21;;;20.89;36.47
80414;BME280;69758;52.580;13.068;2023-08-30T04:30:41;100524.18;;;20.86;36.65
80414;BME280;69758;52.580;13.068;2023-08-30T04:33:06;100530.05;;;20.59;36.80
80414;BME280;69758;52.580;13.068;2023-08-30T04:35:31;100534.38;;;20.58;36.94
80414;BME280;69758;52.580;13.068;2023-08-30T04:37:58;100539.67;;;20.57;37.00
80414;BME280;69758;52.580;13.068;2023-08-30T04:40:22;100538.43;;;20.80;37.08
80414;BME280;69758;52.580;13.068;2023-08-30T04:42:47;100538.67;;;20.33;37.08
80414;BME280;69758;52.580;13.068;2023-08-30T04:45:12;100540.72;;;20.37;37.02
80414;BME280;69758;52.580;13.068;2023-08-30T04:47:37;100543.16;;;20.66;37.07
80414;BME280;69758;52.580;13.068;2023-08-30T04:50:03;100549.61;;;20.47;37.05
80414;BME280;69758;52.580;13.068;2023-08-30T04:52:28;100551.94;;;21.02;37.00
80414;BME280;69758;52.580;13.068;2023-08-30T04:54:53;100550.20;;;20.56;37.03
80414;BME280;69758;52.580;13.068;2023-08-30T04:57:18;100550.54;;;20.57;37.09
80414;BME280;69758;52.580;13.068;2023-08-30T04:59:44;100551.70;;;21.09;37.07
80414;BME280;69758;52.580;13.068;2023-08-30T05:02:09;100549.99;;;20.64;37.07
80414;BME280;69758;52.580;13.068;2023-08-30T05:04:49;100550.41;;;21.14;37.10
80414;BME280;69758;52.580;13.068;2023-08-30T05:06:59;100548.51;;;20.93;37.12
80414;BME280;69758;52.580;13.068;2023-08-30T05:09:24;100549.78;;;20.72;37.10
80414;BME280;69758;52.580;13.068;2023-08-30T05:11:49;100547.56;;;20.95;37.32
80414;BME280;69758;52.580;13.068;2023-08-30T05:14:14;100549.65;;;20.76;37.45
80414;BME280;69758;52.580;13.068;2023-08-30T05:16:40;100552.35;;;20.81;37.36
80414;BME280;69758;52.580;13.068;2023-08-30T05:19:06;100551.88;;;20.86;37.42
80414;BME280;69758;52.580;13.068;2023-08-30T05:21:31;100557.04;;;20.90;37.50
80414;BME280;69758;52.580;13.068;2023-08-30T05:23:56;100557.04;;;21.20;37.47
80414;BME280;69758;52.580;13.068;2023-08-30T05:26:21;100558.38;;;21.01;37.66
80414;BME280;69758;52.580;13.068;2023-08-30T05:28:47;100561.20;;;21.02;37.82
80414;BME280;69758;52.580;13.068;2023-08-30T05:31:12;100562.75;;;21.04;37.87
80414;BME280;69758;52.580;13.068;2023-08-30T05:33:37;100562.30;;;21.07;37.91
80414;BME280;69758;52.580;13.068;2023-08-30T05:36:03;100564.45;;;20.88;37.92
80414;BME280;69758;52.580;13.068;2023-08-30T05:38:28;100564.74;;;21.41;37.99
80414;BME280;69758;52.580;13.068;2023-08-30T05:40:53;100563.46;;;21.22;37.93
80414;BME280;69758;52.580;13.068;2023-08-30T05:43:18;100563.69;;;21.22;37.99
80414;BME280;69758;52.580;13.068;2023-08-30T05:45:43;100562.06;;;21.26;38.01
80414;BME280;69758;52.580;13.068;2023-08-30T05:48:09;100559.88;;;21.25;38.01
80414;BME280;69758;52.580;13.068;2023-08-30T05:50:34;100556.71;;;21.27;38.00
80414;BME280;69758;52.580;13.068;2023-08-30T05:52:59;100552.04;;;21.33;38.05
80414;BME280;69758;52.580;13.068;2023-08-30T05:55:24;100547.94;;;21.62;38.19
80414;BME280;69758;52.580;13.068;2023-08-30T05:57:50;100548.92;;;21.40;38.20
80414;BME280;69758;52.580;13.068;2023-08-30T06:00:15;100547.65;;;21.47;38.22
80414;BME280;69758;52.580;13.068;2023-08-30T06:02:40;100547.50;;;21.28;38.19
80414;BME280;69758;52.580;13.068;2023-08-30T06:05:05;100545.13;;;21.33;38.30
80414;BME280;69758;52.580;13.068;2023-08-30T06:07:30;100544.23;;;21.40;38.33
80414;BME280;69758;52.580;13.068;2023-08-30T06:09:55;100543.86;;;21.66;38.32
80414;BME280;69758;52.580;13.068;2023-08-30T06:12:20;100542.46;;;21.69;38.34
80414;BME280;69758;52.580;13.068;2023-08-30T06:14:45;100539.33;;;21.75;38.34
80414;BME280;69758;52.580;13.068;2023-08-30T06:17:11;100535.90;;;21.59;38.20
80414;BME280;69758;52.580;13.068;2023-08-30T06:19:36;100534.02;;;21.86;38.25
80414;BME280;69758;52.580;13.068;2023-08-30T06:22:01;100532.33;;;21.46;38.24
80414;BME280;69758;52.580;13.068;2023-08-30T06:24:26;100531.56;;;21.77;38.15
80414;BME280;69758;52.580;13.068;2023-08-30T06:26:51;100535.36;;;21.85;38.12
80414;BME280;69758;52.580;13.068;2023-08-30T06:29:16;100534.48;;;21.69;37.93
80414;BME280;69758;52.580;13.068;2023-08-30T06:31:41;100534.11;;;22.00;37.94
80414;BME280;69758;52.580;13.068;2023-08-30T06:34:07;100533.34;;;22.04;37.89
80414;BME280;69758;52.580;13.068;2023-08-30T06:36:32;100534.49;;;21.83;37.92
80414;BME280;69758;52.580;13.068;2023-08-30T06:38:58;100535.30;;;22.08;37.87
80414;BME280;69758;52.580;13.068;2023-08-30T06:41:23;100532.74;;;22.14;37.68
80414;BME280;69758;52.580;13.068;2023-08-30T06:43:48;100529.00;;;22.16;37.64
80414;BME280;69758;52.580;13.068;2023-08-30T06:46:13;100526.06;;;21.96;37.80
80414;BME280;69758;52.580;13.068;2023-08-30T06:48:38;100525.74;;;21.99;37.75
80414;BME280;69758;52.580;13.068;2023-08-30T06:51:03;100525.26;;;22.03;37.80
80414;BME280;69758;52.580;13.068;2023-08-30T06:53:29;100526.71;;;22.09;37.67
80414;BME280;69758;52.580;13.068;2023-08-30T06:55:58;100528.68;;;22.37;37.60
80414;BME280;69758;52.580;13.068;2023-08-30T06:58:19;100529.42;;;22.14;37.54
80414;BME280;69758;52.580;13.068;2023-08-30T07:00:44;100526.46;;;22.18;37.53
80414;BME280;69758;52.580;13.068;2023-08-30T07:03:09;100522.97;;;22.19;37.57
80414;BME280;69758;52.580;13.068;2023-08-30T07:05:34;100524.05;;;22.20;37.52
80414;BME280;69758;52.580;13.068;2023-08-30T07:07:59;100523.30;;;22.25;37.61
80414;BME280;69758;52.580;13.068;2023-08-30T07:10:24;100521.90;;;22.24;37.49
80414;BME280;69758;52.580;13.068;2023-08-30T07:12:50;100519.42;;;22.49;37.36
80414;BME280;69758;52.580;13.068;2023-08-30T07:15:15;100520.55;;;22.25;37.41
80414;BME280;69758;52.580;13.068;2023-08-30T07:17:40;100521.56;;;22.29;37.45
80414;BME280;69758;52.580;13.068;2023-08-30T07:20:06;100520.52;;;22.36;37.44
80414;BME280;69758;52.580;13.068;2023-08-30T07:22:30;100519.17;;;22.37;37.47
80414;BME280;69758;52.580;13.068;2023-08-30T07:24:55;100518.57;;;22.34;37.43
80414;BME280;69758;52.580;13.068;2023-08-30T07:27:21;100516.70;;;22.36;37.22
80414;BME280;69758;52.580;13.068;2023-08-30T07:29:46;100515.06;;;22.39;37.22
80414;BME280;69758;52.580;13.068;2023-08-30T07:32:11;100513.96;;;22.40;37.34
80414;BME280;69758;52.580;13.068;2023-08-30T07:34:36;100508.69;;;22.67;37.27
80414;BME280;69758;52.580;13.068;2023-08-30T07:37:01;100506.60;;;22.44;37.21
80414;BME280;69758;52.580;13.068;2023-08-30T07:39:26;100507.07;;;22.45;37.29
80414;BME280;69758;52.580;13.068;2023-08-30T07:41:52;100512.46;;;22.24;36.99
80414;BME280;69758;52.580;13.068;2023-08-30T07:44:17;100513.21;;;22.53;37.09
80414;BME280;69758;52.580;13.068;2023-08-30T07:46:42;100515.17;;;23.06;37.22
80414;BME280;69758;52.580;13.068;2023-08-30T07:49:07;100519.82;;;22.64;37.39
80414;BME280;69758;52.580;13.068;2023-08-30T07:51:32;100523.96;;;22.40;37.51
80414;BME280;69758;52.580;13.068;2023-08-30T07:53:57;100526.37;;;22.68;37.51
80414;BME280;69758;52.580;13.068;2023-08-30T07:56:22;100527.15;;;22.74;37.37
80414;BME280;69758;52.580;13.068;2023-08-30T07:58:48;100531.23;;;22.82;37.19
80414;BME280;69758;52.580;13.068;2023-08-30T08:01:13;100531.29;;;22.63;37.19
80414;BME280;69758;52.580;13.068;2023-08-30T08:03:38;100532.05;;;22.90;37.14
80414;BME280;69758;52.580;13.068;2023-08-30T08:06:03;100526.76;;;22.69;37.11
80414;BME280;69758;52.580;13.068;2023-08-30T08:08:28;100519.83;;;22.98;37.04
80414;BME280;69758;52.580;13.068;2023-08-30T08:10:53;100519.42;;;22.55;36.99
80414;BME280;69758;52.580;13.068;2023-08-30T08:13:18;100517.40;;;23.09;36.96
80414;BME280;69758;52.580;13.068;2023-08-30T08:15:43;100518.05;;;22.67;36.94
80414;BME280;69758;52.580;13.068;2023-08-30T08:18:09;100520.25;;;23.01;36.83
80414;BME280;69758;52.580;13.068;2023-08-30T08:20:34;100522.18;;;23.01;36.89
80414;BME280;69758;52.580;13.068;2023-08-30T08:22:59;100517.67;;;22.91;36.45
80414;BME280;69758;52.580;13.068;2023-08-30T08:25:24;100522.57;;;22.81;36.75
80414;BME280;69758;52.580;13.068;2023-08-30T08:27:50;100525.77;;;22.61;36.83
80414;BME280;69758;52.580;13.068;2023-08-30T08:30:15;100526.09;;;22.73;36.72
80414;BME280;69758;52.580;13.068;2023-08-30T08:32:40;100526.94;;;23.05;36.39
80414;BME280;69758;52.580;13.068;2023-08-30T08:35:06;100524.41;;;22.93;36.76
80414;BME280;69758;52.580;13.068;2023-08-30T08:37:31;100521.37;;;22.72;37.13
80414;BME280;69758;52.580;13.068;2023-08-30T08:39:55;100520.77;;;23.26;36.53
80414;BME280;69758;52.580;13.068;2023-08-30T08:42:20;100519.96;;;23.19;36.31
80414;BME280;69758;52.580;13.068;2023-08-30T08:44:46;100518.13;;;22.96;36.65
80414;BME280;69758;52.580;13.068;2023-08-30T08:47:11;100515.66;;;23.04;36.37
80414;BME280;69758;52.580;13.068;2023-08-30T08:49:36;100516.30;;;22.94;36.08
80414;BME280;69758;52.580;13.068;2023-08-30T08:52:02;100513.43;;;22.97;36.29
80414;BME280;69758;52.580;13.068;2023-08-30T08:54:26;100512.47;;;22.65;36.46
80414;BME280;69758;52.580;13.068;2023-08-30T08:56:51;100513.53;;;23.24;36.72
80414;BME280;69758;52.580;13.068;2023-08-30T08:59:16;100512.67;;;22.82;36.61
80414;BME280;69758;52.580;13.068;2023-08-30T09:01:41;100515.36;;;22.93;36.03
80414;BME280;69758;52.580;13.068;2023-08-30T09:04:08;100515.65;;;23.14;36.08
80414;BME280;69758;52.580;13.068;2023-08-30T09:06:31;100515.09;;;22.99;36.48
80414;BME280;69758;52.580;13.068;2023-08-30T09:08:57;100515.07;;;22.93;36.16
80414;BME280;69758;52.580;13.068;2023-08-30T09:11:22;100512.92;;;23.10;36.36
80414;BME280;69758;52.580;13.068;2023-08-30T09:13:47;100511.87;;;23.11;36.27
80414;BME280;69758;52.580;13.068;2023-08-30T09:16:13;100512.70;;;23.27;36.22
80414;BME280;69758;52.580;13.068;2023-08-30T09:18:37;100511.19;;;23.15;36.38
80414;BME280;69758;52.580;13.068;2023-08-30T09:21:06;100509.42;;;23.38;36.40
80414;BME280;69758;52.580;13.068;2023-08-30T09:23:27;100513.16;;;23.52;35.53
80414;BME280;69758;52.580;13.068;2023-08-30T09:25:55;100511.63;;;23.48;34.27
80414;BME280;69758;52.580;13.068;2023-08-30T09:28:17;100510.92;;;23.48;34.52
80414;BME280;69758;52.580;13.068;2023-08-30T09:30:49;100511.82;;;23.69;35.09
80414;BME280;69758;52.580;13.068;2023-08-30T09:33:08;100509.70;;;23.60;35.27
80414;BME280;69758;52.580;13.068;2023-08-30T09:35:43;100509.16;;;23.74;35.11
80414;BME280;69758;52.580;13.068;2023-08-30T09:37:58;100507.16;;;23.90;34.68
80414;BME280;69758;52.580;13.068;2023-08-30T09:40:23;100508.82;;;24.08;34.50
80414;BME280;69758;52.580;13.068;2023-08-30T09:42:48;100509.80;;;23.66;33.89
80414;BME280;69758;52.580;13.068;2023-08-30T09:45:18;100512.38;;;23.93;34.65
80414;BME280;69758;52.580;13.068;2023-08-30T09:47:38;100515.67;;;24.29;34.67
80414;BME280;69758;52.580;13.068;2023-08-30T09:50:04;100516.46;;;24.24;34.69
80414;BME280;69758;52.580;13.068;2023-08-30T09:52:30;100514.29;;;24.53;35.16
80414;BME280;69758;52.580;13.068;2023-08-30T09:54:54;100509.37;;;24.09;34.54
80414;BME280;69758;52.580;13.068;2023-08-30T09:57:19;100507.19;;;24.45;34.32
80414;BME280;69758;52.580;13.068;2023-08-30T09:59:45;100503.40;;;24.60;34.10
80414;BME280;69758;52.580;13.068;2023-08-30T10:02:10;100501.38;;;24.48;34.06
80414;BME280;69758;52.580;13.068;2023-08-30T10:04:35;100497.95;;;24.94;33.11
80414;BME280;69758;52.580;13.068;2023-08-30T10:06:59;100491.00;;;24.52;33.70
80414;BME280;69758;52.580;13.068;2023-08-30T10:09:24;100488.26;;;24.18;33.45
80414;BME280;69758;52.580;13.068;2023-08-30T10:11:49;100484.63;;;24.60;33.48
80414;BME280;69758;52.580;13.068;2023-08-30T10:14:14;100484.21;;;24.55;33.42
80414;BME280;69758;52.580;13.068;2023-08-30T10:16:42;100481.24;;;24.47;33.38
80414;BME280;69758;52.580;13.068;2023-08-30T10:19:09;100479.30;;;24.75;33.06
80414;BME280;69758;52.580;13.068;2023-08-30T10:21:30;100475.16;;;24.85;32.92
80414;BME280;69758;52.580;13.068;2023-08-30T10:23:55;100473.71;;;24.63;33.26
80414;BME280;69758;52.580;13.068;2023-08-30T10:26:19;100474.02;;;24.88;33.13
80414;BME280;69758;52.580;13.068;2023-08-30T10:28:45;100478.50;;;25.05;32.82
80414;BME280;69758;52.580;13.068;2023-08-30T10:31:10;100480.41;;;24.38;31.75
80414;BME280;69758;52.580;13.068;2023-08-30T10:33:48;100481.43;;;24.55;32.18
80414;BME280;69758;52.580;13.068;2023-08-30T10:36:05;100478.47;;;24.15;32.28
80414;BME280;69758;52.580;13.068;2023-08-30T10:38:25;100483.19;;;24.60;32.92
80414;BME280;69758;52.580;13.068;2023-08-30T10:40:50;100480.89;;;24.56;32.22
80414;BME280;69758;52.580;13.068;2023-08-30T10:43:15;100482.59;;;24.37;32.13
80414;BME280;69758;52.580;13.068;2023-08-30T10:45:40;100486.70;;;24.61;32.68
80414;BME280;69758;52.580;13.068;2023-08-30T10:48:06;100488.48;;;24.73;32.85
80414;BME280;69758;52.580;13.068;2023-08-30T10:50:33;100490.95;;;24.94;32.42
80414;BME280;69758;52.580;13.068;2023-08-30T10:52:55;100486.25;;;24.97;32.53
80414;BME280;69758;52.580;13.068;2023-08-30T10:55:22;100487.66;;;25.12;32.78
80414;BME280;69758;52.580;13.068;2023-08-30T10:57:45;100484.24;;;24.85;32.32
80414;BME280;69758;52.580;13.068;2023-08-30T11:00:19;100484.56;;;25.48;31.68
80414;BME280;69758;52.580;13.068;2023-08-30T11:02:36;100486.31;;;25.28;32.46
80414;BME280;69758;52.580;13.068;2023-08-30T11:05:01;100487.14;;;25.52;32.48
80414;BME280;69758;52.580;13.068;2023-08-30T11:07:26;100487.96;;;25.64;31.84
80414;BME280;69758;52.580;13.068;2023-08-30T11:09:51;100486.81;;;25.69;31.01
80414;BME280;69758;52.580;13.068;2023-08-30T11:12:18;100485.55;;;25.55;30.47
80414;BME280;69758;52.580;13.068;2023-08-30T11:14:41;100484.25;;;25.86;30.22
80414;BME280;69758;52.580;13.068;2023-08-30T11:17:09;100484.38;;;25.82;29.97
80414;BME280;69758;52.580;13.068;2023-08-30T11:19:31;100483.39;;;26.02;28.71
80414;BME280;69758;52.580;13.068;2023-08-30T11:24:22;100483.69;;;25.90;28.59
80414;BME280;69758;52.580;13.068;2023-08-30T11:26:46;100484.23;;;26.19;29.44
80414;BME280;69758;52.580;13.068;2023-08-30T11:29:11;100484.46;;;25.98;29.30
80414;BME280;69758;52.580;13.068;2023-08-30T11:31:36;100481.08;;;25.96;29.32
80414;BME280;69758;52.580;13.068;2023-08-30T11:34:02;100474.41;;;26.08;29.69
80414;BME280;69758;52.580;13.068;2023-08-30T11:36:28;100473.40;;;25.77;29.98
80414;BME280;69758;52.580;13.068;2023-08-30T11:38:52;100474.94;;;25.79;29.64
80414;BME280;69758;52.580;13.068;2023-08-30T11:41:16;100471.84;;;25.68;30.25
80414;BME280;69758;52.580;13.068;2023-08-30T11:43:41;100466.64;;;26.19;30.40
80414;BME280;69758;52.580;13.068;2023-08-30T11:46:07;100472.62;;;25.72;28.62
80414;BME280;69758;52.580;13.068;2023-08-30T11:48:32;100471.09;;;25.66;29.40
80414;BME280;69758;52.580;13.068;2023-08-30T11:50:57;100468.21;;;25.70;29.77
80414;BME280;69758;52.580;13.068;2023-08-30T11:53:21;100469.98;;;26.14;29.83
80414;BME280;69758;52.580;13.068;2023-08-30T11:55:46;100472.08;;;25.82;28.56
80414;BME280;69758;52.580;13.068;2023-08-30T11:58:11;100472.56;;;25.90;29.00
80414;BME280;69758;52.580;13.068;2023-08-30T12:00:37;100472.21;;;26.39;28.84
80414;BME280;69758;52.580;13.068;2023-08-30T12:03:02;100468.78;;;26.08;29.17
80414;BME280;69758;52.580;13.068;2023-08-30T12:05:27;100468.51;;;26.26;27.31
80414;BME280;69758;52.580;13.068;2023-08-30T12:07:52;100464.51;;;25.64;28.10
80414;BME280;69758;52.580;13.068;2023-08-30T12:10:18;100467.90;;;25.76;27.85
80414;BME280;69758;52.580;13.068;2023-08-30T12:12:45;100470.10;;;25.58;27.70
80414;BME280;69758;52.580;13.068;2023-08-30T12:15:08;100465.09;;;25.99;28.10
80414;BME280;69758;52.580;13.068;2023-08-30T12:17:34;100462.03;;;25.59;28.59
80414;BME280;69758;52.580;13.068;2023-08-30T12:19:57;100468.66;;;25.98;28.27
80414;BME280;69758;52.580;13.068;2023-08-30T12:22:22;100465.28;;;25.61;28.64
80414;BME280;69758;52.580;13.068;2023-08-30T12:24:47;100462.22;;;25.97;28.36
80414;BME280;69758;52.580;13.068;2023-08-30T12:27:12;100460.79;;;25.85;28.46
80414;BME280;69758;52.580;13.068;2023-08-30T12:29:37;100458.51;;;26.10;28.80
80414;BME280;69758;52.580;13.068;2023-08-30T12:32:02;100456.41;;;25.85;29.08
80414;BME280;69758;52.580;13.068;2023-08-30T12:34:27;100453.88;;;26.18;28.93